sensor_id;sensor_type;location;lat;lon;timestamp;pressure;altitude;pressure_sealevel;temperature;humidity
64739;BME280;51175;51.186;0.276;2023-05-10T00:00:25;100648.66;;;18.59;63.44
64739;BME280;51175;51.186;0.276;2023-05-10T00:00:55;100647.09;;;18.58;63.30
64739;BME280;51175;51.186;0.276;2023-05-10T00:01:26;100648.66;;;18.59;63.33
64739;BME280;51175;51.186;0.276;2023-05-10T00:01:56;100649.75;;;18.58;63.45
64739;BME280;51175;51.186;0.276;2023-05-10T00:02:27;100654.81;;;18.60;63.20
64739;BME280;51175;51.186;0.276;2023-05-10T00:02:57;100647.09;;;18.58;63.43
64739;BME280;51175;51.186;0.276;2023-05-10T00:03:27;100649.75;;;18.58;63.36
64739;BME280;51175;51.186;0.276;2023-05-10T00:03:58;100645.53;;;18.57;63.42
64739;BME280;51175;51.186;0.276;2023-05-10T00:04:28;100645.53;;;18.57;63.35
64739;BME280;51175;51.186;0.276;2023-05-10T00:04:59;100646.28;;;18.58;63.21
64739;BME280;51175;51.186;0.276;2023-05-10T00:05:29;100652.75;;;18.57;63.31
64739;BME280;51175;51.186;0.276;2023-05-10T00:05:59;100646.59;;;18.56;63.41
64739;BME280;51175;51.186;0.276;2023-05-10T00:06:30;100651.94;;;18.56;63.16
64739;BME280;51175;51.186;0.276;2023-05-10T00:07:01;100651.19;;;18.56;63.17
64739;BME280;51175;51.186;0.276;2023-05-10T00:07:32;100645.03;;;18.55;63.25
64739;BME280;51175;51.186;0.276;2023-05-10T00:08:02;100645.03;;;18.55;63.07
64739;BME280;51175;51.186;0.276;2023-05-10T00:08:33;100648.50;;;18.56;63.06
64739;BME280;51175;51.186;0.276;2023-05-10T00:09:03;100653.06;;;18.55;63.14
64739;BME280;51175;51.186;0.276;2023-05-10T00:09:33;100646.91;;;18.55;63.42
64739;BME280;51175;51.186;0.276;2023-05-10T00:10:04;100652.56;;;18.53;63.23
64739;BME280;51175;51.186;0.276;2023-05-10T00:10:35;100649.59;;;18.55;63.16
64739;BME280;51175;51.186;0.276;2023-05-10T00:11:07;100653.38;;;18.54;63.16
64739;BME280;51175;51.186;0.276;2023-05-10T00:11:38;100656.84;;;18.54;63.15
64739;BME280;51175;51.186;0.276;2023-05-10T00:12:08;100652.56;;;18.53;63.23
64739;BME280;51175;51.186;0.276;2023-05-10T00:12:39;100649.91;;;18.53;63.23
64739;BME280;51175;51.186;0.276;2023-05-10T00:13:09;100646.44;;;18.53;63.23
64739;BME280;51175;51.186;0.276;2023-05-10T00:13:40;100651.00;;;18.52;63.16
64739;BME280;51175;51.186;0.276;2023-05-10T00:14:11;100651.00;;;18.52;63.35
64739;BME280;51175;51.186;0.276;2023-05-10T00:14:41;100646.44;;;18.53;63.11
64739;BME280;51175;51.186;0.276;2023-05-10T00:15:12;100651.00;;;18.52;63.20
64739;BME280;51175;51.186;0.276;2023-05-10T00:15:42;100650.22;;;18.52;63.42
64739;BME280;51175;51.186;0.276;2023-05-10T00:16:13;100647.53;;;18.52;63.31
64739;BME280;51175;51.186;0.276;2023-05-10T00:16:43;100654.78;;;18.51;63.25
64739;BME280;51175;51.186;0.276;2023-05-10T00:17:14;100652.88;;;18.52;63.17
64739;BME280;51175;51.186;0.276;2023-05-10T00:17:44;100655.56;;;18.52;63.26
64739;BME280;51175;51.186;0.276;2023-05-10T00:18:15;100658.22;;;18.52;63.26
64739;BME280;51175;51.186;0.276;2023-05-10T00:18:45;100654.00;;;18.51;63.31
64739;BME280;51175;51.186;0.276;2023-05-10T00:19:16;100654.00;;;18.51;63.42
64739;BME280;51175;51.186;0.276;2023-05-10T00:19:46;100648.63;;;18.51;63.17
64739;BME280;51175;51.186;0.276;2023-05-10T00:20:16;100649.75;;;18.49;63.32
64739;BME280;51175;51.186;0.276;2023-05-10T00:20:47;100648.16;;;18.48;63.24
64739;BME280;51175;51.186;0.276;2023-05-10T00:21:18;100651.63;;;18.49;63.18
64739;BME280;51175;51.186;0.276;2023-05-10T00:21:49;100648.94;;;18.49;63.29
64739;BME280;51175;51.186;0.276;2023-05-10T00:22:19;100647.38;;;18.48;63.37
64739;BME280;51175;51.186;0.276;2023-05-10T00:22:50;100648.47;;;18.47;63.35
64739;BME280;51175;51.186;0.276;2023-05-10T00:23:21;100643.91;;;18.47;63.16
64739;BME280;51175;51.186;0.276;2023-05-10T00:23:51;100650.38;;;18.46;63.39
64739;BME280;51175;51.186;0.276;2023-05-10T00:24:21;100651.94;;;18.47;63.15
64739;BME280;51175;51.186;0.276;2023-05-10T00:24:52;100645.78;;;18.47;63.10
64739;BME280;51175;51.186;0.276;2023-05-10T00:25:22;100643.09;;;18.47;63.16
64739;BME280;51175;51.186;0.276;2023-05-10T00:25:52;100649.56;;;18.46;63.16
64739;BME280;51175;51.186;0.276;2023-05-10T00:26:23;100648.00;;;18.45;63.17
64739;BME280;51175;51.186;0.276;2023-05-10T00:26:53;100650.38;;;18.46;63.21
64739;BME280;51175;51.186;0.276;2023-05-10T00:27:23;100648.00;;;18.45;63.21
64739;BME280;51175;51.186;0.276;2023-05-10T00:27:54;100648.00;;;18.45;63.34
64739;BME280;51175;51.186;0.276;2023-05-10T00:28:27;100645.31;;;18.45;63.10
64739;BME280;51175;51.186;0.276;2023-05-10T00:28:58;100651.75;;;18.44;63.09
64739;BME280;51175;51.186;0.276;2023-05-10T00:29:29;100648.31;;;18.43;63.25
64739;BME280;51175;51.186;0.276;2023-05-10T00:30:00;100646.72;;;18.42;63.32
64739;BME280;51175;51.186;0.276;2023-05-10T00:30:30;100646.72;;;18.42;63.29
64739;BME280;51175;51.186;0.276;2023-05-10T00:31:01;100646.72;;;18.42;63.55
64739;BME280;51175;51.186;0.276;2023-05-10T00:31:31;100651.28;;;18.42;63.30
64739;BME280;51175;51.186;0.276;2023-05-10T00:32:01;100648.63;;;18.42;63.39
64739;BME280;51175;51.186;0.276;2023-05-10T00:32:32;100648.63;;;18.42;63.14
64739;BME280;51175;51.186;0.276;2023-05-10T00:33:02;100645.16;;;18.41;63.32
64739;BME280;51175;51.186;0.276;2023-05-10T00:33:33;100646.72;;;18.42;63.13
64739;BME280;51175;51.186;0.276;2023-05-10T00:34:03;100647.81;;;18.41;63.06
64739;BME280;51175;51.186;0.276;2023-05-10T00:34:33;100649.69;;;18.41;63.11
64739;BME280;51175;51.186;0.276;2023-05-10T00:35:04;100652.38;;;18.41;63.19
64739;BME280;51175;51.186;0.276;2023-05-10T00:35:35;100650.81;;;18.40;63.06
64739;BME280;51175;51.186;0.276;2023-05-10T00:36:06;100651.59;;;18.40;63.24
64739;BME280;51175;51.186;0.276;2023-05-10T00:36:37;100652.38;;;18.41;63.33
64739;BME280;51175;51.186;0.276;2023-05-10T00:37:08;100644.66;;;18.39;63.13
64739;BME280;51175;51.186;0.276;2023-05-10T00:37:38;100650.81;;;18.40;63.21
64739;BME280;51175;51.186;0.276;2023-05-10T00:38:09;100654.59;;;18.39;63.19
64739;BME280;51175;51.186;0.276;2023-05-10T00:38:39;100650.00;;;18.39;63.04
64739;BME280;51175;51.186;0.276;2023-05-10T00:39:10;100651.13;;;18.38;63.14
64739;BME280;51175;51.186;0.276;2023-05-10T00:39:40;100653.78;;;18.38;63.24
64739;BME280;51175;51.186;0.276;2023-05-10T00:40:11;100655.34;;;18.39;63.16
64739;BME280;51175;51.186;0.276;2023-05-10T00:40:41;100649.53;;;18.37;63.31
64739;BME280;51175;51.186;0.276;2023-05-10T00:41:12;100655.66;;;18.38;63.04
64739;BME280;51175;51.186;0.276;2023-05-10T00:41:42;100649.25;;;18.39;63.23
64739;BME280;51175;51.186;0.276;2023-05-10T00:42:13;100648.44;;;18.38;63.06
64739;BME280;51175;51.186;0.276;2023-05-10T00:42:43;100649.53;;;18.37;62.94
64739;BME280;51175;51.186;0.276;2023-05-10T00:43:13;100651.44;;;18.36;63.35
64739;BME280;51175;51.186;0.276;2023-05-10T00:43:44;100646.88;;;18.37;63.16
64739;BME280;51175;51.186;0.276;2023-05-10T00:44:14;100651.44;;;18.36;63.05
64739;BME280;51175;51.186;0.276;2023-05-10T00:44:45;100642.59;;;18.36;63.11
64739;BME280;51175;51.186;0.276;2023-05-10T00:45:16;100652.53;;;18.35;63.30
64739;BME280;51175;51.186;0.276;2023-05-10T00:45:47;100655.19;;;18.35;63.29
64739;BME280;51175;51.186;0.276;2023-05-10T00:46:18;100655.19;;;18.35;63.37
64739;BME280;51175;51.186;0.276;2023-05-10T00:46:49;100654.41;;;18.35;63.03
64739;BME280;51175;51.186;0.276;2023-05-10T00:47:19;100652.53;;;18.35;63.05
64739;BME280;51175;51.186;0.276;2023-05-10T00:47:50;100653.59;;;18.34;62.93
64739;BME280;51175;51.186;0.276;2023-05-10T00:48:25;100650.94;;;18.34;62.98
64739;BME280;51175;51.186;0.276;2023-05-10T00:48:55;100651.25;;;18.33;63.09
64739;BME280;51175;51.186;0.276;2023-05-10T00:49:26;100652.03;;;18.33;63.21
64739;BME280;51175;51.186;0.276;2023-05-10T00:49:56;100649.38;;;18.33;63.19
64739;BME280;51175;51.186;0.276;2023-05-10T00:50:27;100652.03;;;18.33;63.03
64739;BME280;51175;51.186;0.276;2023-05-10T00:50:58;100653.13;;;18.32;63.14
64739;BME280;51175;51.186;0.276;2023-05-10T00:51:28;100652.34;;;18.32;62.97
64739;BME280;51175;51.186;0.276;2023-05-10T00:51:59;100652.34;;;18.32;63.27
64739;BME280;51175;51.186;0.276;2023-05-10T00:52:30;100651.56;;;18.31;63.02
64739;BME280;51175;51.186;0.276;2023-05-10T00:53:00;100654.22;;;18.31;62.97
64739;BME280;51175;51.186;0.276;2023-05-10T00:53:32;100650.75;;;18.31;63.25
64739;BME280;51175;51.186;0.276;2023-05-10T00:54:04;100654.22;;;18.31;63.34
64739;BME280;51175;51.186;0.276;2023-05-10T00:54:35;100655.34;;;18.30;63.27
64739;BME280;51175;51.186;0.276;2023-05-10T00:55:06;100657.22;;;18.30;63.26
64739;BME280;51175;51.186;0.276;2023-05-10T00:55:37;100653.72;;;18.29;63.25
64739;BME280;51175;51.186;0.276;2023-05-10T00:56:08;100655.34;;;18.30;62.98
64739;BME280;51175;51.186;0.276;2023-05-10T00:56:38;100659.09;;;18.29;63.16
64739;BME280;51175;51.186;0.276;2023-05-10T00:57:10;100656.41;;;18.29;63.17
64739;BME280;51175;51.186;0.276;2023-05-10T00:57:41;100658.31;;;18.29;63.20
64739;BME280;51175;51.186;0.276;2023-05-10T00:58:12;100654.03;;;18.28;62.97
64739;BME280;51175;51.186;0.276;2023-05-10T00:58:43;100651.38;;;18.28;62.99
64739;BME280;51175;51.186;0.276;2023-05-10T00:59:17;100658.31;;;18.29;63.18
64739;BME280;51175;51.186;0.276;2023-05-10T00:59:48;100654.84;;;18.28;63.13
64739;BME280;51175;51.186;0.276;2023-05-10T01:00:18;100657.50;;;18.28;63.05
64739;BME280;51175;51.186;0.276;2023-05-10T01:00:49;100659.38;;;18.28;63.27
64739;BME280;51175;51.186;0.276;2023-05-10T01:01:20;100650.59;;;18.27;63.14
64739;BME280;51175;51.186;0.276;2023-05-10T01:01:51;100651.38;;;18.28;63.07
64739;BME280;51175;51.186;0.276;2023-05-10T01:02:22;100650.59;;;18.27;63.02
64739;BME280;51175;51.186;0.276;2023-05-10T01:02:53;100647.44;;;18.25;63.14
64739;BME280;51175;51.186;0.276;2023-05-10T01:03:25;100650.91;;;18.26;63.25
64739;BME280;51175;51.186;0.276;2023-05-10T01:03:55;100652.78;;;18.25;63.29
64739;BME280;51175;51.186;0.276;2023-05-10T01:04:26;100654.34;;;18.26;63.02
64739;BME280;51175;51.186;0.276;2023-05-10T01:04:56;100649.31;;;18.24;63.31
64739;BME280;51175;51.186;0.276;2023-05-10T01:05:27;100647.44;;;18.25;63.06
64739;BME280;51175;51.186;0.276;2023-05-10T01:05:57;100655.75;;;18.23;63.13
64739;BME280;51175;51.186;0.276;2023-05-10T01:06:28;100647.75;;;18.23;63.04
64739;BME280;51175;51.186;0.276;2023-05-10T01:06:58;100653.88;;;18.24;63.31
64739;BME280;51175;51.186;0.276;2023-05-10T01:07:29;100650.41;;;18.23;62.98
64739;BME280;51175;51.186;0.276;2023-05-10T01:08:00;100654.66;;;18.24;63.13
64739;BME280;51175;51.186;0.276;2023-05-10T01:08:30;100659.22;;;18.24;63.22
64739;BME280;51175;51.186;0.276;2023-05-10T01:09:00;100654.97;;;18.23;63.14
64739;BME280;51175;51.186;0.276;2023-05-10T01:09:31;100649.63;;;18.23;63.24
64739;BME280;51175;51.186;0.276;2023-05-10T01:10:02;100659.53;;;18.22;63.38
64739;BME280;51175;51.186;0.276;2023-05-10T01:10:33;100656.88;;;18.22;63.45
64739;BME280;51175;51.186;0.276;2023-05-10T01:11:03;100654.50;;;18.21;63.25
64739;BME280;51175;51.186;0.276;2023-05-10T01:11:35;100657.94;;;18.21;63.07
64739;BME280;51175;51.186;0.276;2023-05-10T01:12:06;100655.28;;;18.21;63.26
64739;BME280;51175;51.186;0.276;2023-05-10T01:12:39;100654.50;;;18.21;63.39
64739;BME280;51175;51.186;0.276;2023-05-10T01:13:11;100655.28;;;18.21;63.38
64739;BME280;51175;51.186;0.276;2023-05-10T01:13:43;100651.84;;;18.21;63.23
64739;BME280;51175;51.186;0.276;2023-05-10T01:14:17;100655.28;;;18.21;63.16
64739;BME280;51175;51.186;0.276;2023-05-10T01:14:49;100657.19;;;18.21;63.31
64739;BME280;51175;51.186;0.276;2023-05-10T01:15:20;100653.72;;;18.20;63.36
64739;BME280;51175;51.186;0.276;2023-05-10T01:15:50;100653.72;;;18.20;63.38
64739;BME280;51175;51.186;0.276;2023-05-10T01:16:21;100658.25;;;18.20;63.21
64739;BME280;51175;51.186;0.276;2023-05-10T01:16:52;100660.94;;;18.20;63.12
64739;BME280;51175;51.186;0.276;2023-05-10T01:17:23;100660.16;;;18.19;63.04
64739;BME280;51175;51.186;0.276;2023-05-10T01:17:55;100662.03;;;18.19;63.09
64739;BME280;51175;51.186;0.276;2023-05-10T01:18:26;100664.69;;;18.19;63.04
64739;BME280;51175;51.186;0.276;2023-05-10T01:18:58;100658.56;;;18.18;63.03
64739;BME280;51175;51.186;0.276;2023-05-10T01:19:30;100665.00;;;18.17;63.17
64739;BME280;51175;51.186;0.276;2023-05-10T01:20:02;100665.81;;;18.18;63.22
64739;BME280;51175;51.186;0.276;2023-05-10T01:20:40;100662.34;;;18.17;63.11
64739;BME280;51175;51.186;0.276;2023-05-10T01:21:43;100662.34;;;18.17;63.26
64739;BME280;51175;51.186;0.276;2023-05-10T01:22:25;100661.84;;;18.15;63.21
64739;BME280;51175;51.186;0.276;2023-05-10T01:23:42;100669.41;;;18.13;63.18
64739;BME280;51175;51.186;0.276;2023-05-10T01:29:13;100669.31;;;18.04;63.42
64739;BME280;51175;51.186;0.276;2023-05-10T01:29:55;100665.06;;;18.03;63.37
64739;BME280;51175;51.186;0.276;2023-05-10T01:32:57;100660.34;;;18.00;63.51
64739;BME280;51175;51.186;0.276;2023-05-10T01:33:48;100667.06;;;17.97;63.70
64739;BME280;51175;51.186;0.276;2023-05-10T01:34:27;100663.63;;;17.97;63.76
64739;BME280;51175;51.186;0.276;2023-05-10T01:35:07;100664.69;;;17.96;63.77
64739;BME280;51175;51.186;0.276;2023-05-10T01:35:51;100668.16;;;17.96;63.92
64739;BME280;51175;51.186;0.276;2023-05-10T01:36:35;100661.25;;;17.95;63.75
64739;BME280;51175;51.186;0.276;2023-05-10T01:37:11;100661.25;;;17.95;63.93
64739;BME280;51175;51.186;0.276;2023-05-10T01:38:28;100662.31;;;17.94;63.97
64739;BME280;51175;51.186;0.276;2023-05-10T01:39:52;100671.13;;;17.95;63.80
64739;BME280;51175;51.186;0.276;2023-05-10T01:40:25;100664.22;;;17.94;63.71
64739;BME280;51175;51.186;0.276;2023-05-10T01:42:08;100664.84;;;17.91;63.78
64739;BME280;51175;51.186;0.276;2023-05-10T01:42:50;100662.16;;;17.91;63.92
64739;BME280;51175;51.186;0.276;2023-05-10T01:43:25;100669.38;;;17.90;64.02
64739;BME280;51175;51.186;0.276;2023-05-10T01:44:09;100656.81;;;17.91;64.04
64739;BME280;51175;51.186;0.276;2023-05-10T01:44:51;100664.03;;;17.90;63.82
64739;BME280;51175;51.186;0.276;2023-05-10T01:45:29;100670.50;;;17.89;63.74
64739;BME280;51175;51.186;0.276;2023-05-10T01:46:05;100665.16;;;17.89;63.98
64739;BME280;51175;51.186;0.276;2023-05-10T01:46:40;100663.56;;;17.88;64.02
64739;BME280;51175;51.186;0.276;2023-05-10T01:47:14;100661.69;;;17.89;63.61
64739;BME280;51175;51.186;0.276;2023-05-10T01:48:05;100673.94;;;17.90;63.71
64739;BME280;51175;51.186;0.276;2023-05-10T01:48:38;100673.94;;;17.90;64.05
64739;BME280;51175;51.186;0.276;2023-05-10T01:49:15;100667.03;;;17.89;64.01
64739;BME280;51175;51.186;0.276;2023-05-10T01:49:53;100669.69;;;17.89;63.76
64739;BME280;51175;51.186;0.276;2023-05-10T01:50:29;100672.38;;;17.89;63.89
64739;BME280;51175;51.186;0.276;2023-05-10T01:51:00;100672.38;;;17.89;64.06
64739;BME280;51175;51.186;0.276;2023-05-10T01:51:36;100673.16;;;17.89;64.17
64739;BME280;51175;51.186;0.276;2023-05-10T01:52:11;100675.03;;;17.89;63.89
64739;BME280;51175;51.186;0.276;2023-05-10T01:52:44;100671.25;;;17.90;63.90
64739;BME280;51175;51.186;0.276;2023-05-10T01:53:19;100665.16;;;17.89;64.00
64739;BME280;51175;51.186;0.276;2023-05-10T01:53:59;100670.50;;;17.89;63.87
64739;BME280;51175;51.186;0.276;2023-05-10T01:54:32;100672.38;;;17.89;63.88
64739;BME280;51175;51.186;0.276;2023-05-10T01:55:09;100673.16;;;17.89;63.77
64739;BME280;51175;51.186;0.276;2023-05-10T01:55:46;100683.06;;;17.89;63.89
64739;BME280;51175;51.186;0.276;2023-05-10T01:56:19;100675.03;;;17.89;64.17
64739;BME280;51175;51.186;0.276;2023-05-10T01:57:00;100681.47;;;17.87;63.63
64739;BME280;51175;51.186;0.276;2023-05-10T01:57:35;100682.25;;;17.88;64.11
64739;BME280;51175;51.186;0.276;2023-05-10T01:58:12;100681.47;;;17.87;63.98
64739;BME280;51175;51.186;0.276;2023-05-10T01:58:44;100683.06;;;17.89;63.86
64739;BME280;51175;51.186;0.276;2023-05-10T01:59:19;100678.50;;;17.89;63.90
64739;BME280;51175;51.186;0.276;2023-05-10T01:59:50;100674.25;;;17.88;64.01
64739;BME280;51175;51.186;0.276;2023-05-10T02:00:22;100676.91;;;17.88;63.78
64739;BME280;51175;51.186;0.276;2023-05-10T02:00:53;100683.84;;;17.89;63.95
64739;BME280;51175;51.186;0.276;2023-05-10T02:01:25;100685.72;;;17.89;63.92
64739;BME280;51175;51.186;0.276;2023-05-10T02:01:58;100691.88;;;17.89;63.83
64739;BME280;51175;51.186;0.276;2023-05-10T02:02:33;100675.84;;;17.89;63.94
64739;BME280;51175;51.186;0.276;2023-05-10T02:03:07;100678.50;;;17.89;64.03
64739;BME280;51175;51.186;0.276;2023-05-10T02:03:39;100685.72;;;17.89;63.78
64739;BME280;51175;51.186;0.276;2023-05-10T02:04:15;100696.41;;;17.89;63.66
64739;BME280;51175;51.186;0.276;2023-05-10T02:04:49;100690.75;;;17.90;63.94
64739;BME280;51175;51.186;0.276;2023-05-10T02:05:21;100691.88;;;17.89;63.96
64739;BME280;51175;51.186;0.276;2023-05-10T02:05:53;100689.19;;;17.89;63.65
64739;BME280;51175;51.186;0.276;2023-05-10T02:06:25;100691.88;;;17.89;64.03
64739;BME280;51175;51.186;0.276;2023-05-10T02:06:56;100688.41;;;17.89;63.71
64739;BME280;51175;51.186;0.276;2023-05-10T02:07:28;100687.28;;;17.90;63.74
64739;BME280;51175;51.186;0.276;2023-05-10T02:07:59;100687.28;;;17.90;63.88
64739;BME280;51175;51.186;0.276;2023-05-10T02:08:32;100690.28;;;17.88;63.72
64739;BME280;51175;51.186;0.276;2023-05-10T02:09:06;100689.97;;;17.90;63.96
64739;BME280;51175;51.186;0.276;2023-05-10T02:09:39;100691.06;;;17.89;64.01
64739;BME280;51175;51.186;0.276;2023-05-10T02:10:11;100685.72;;;17.89;63.82
64739;BME280;51175;51.186;0.276;2023-05-10T02:10:42;100685.72;;;17.89;63.61
64739;BME280;51175;51.186;0.276;2023-05-10T02:11:15;100693.75;;;17.89;63.54
64739;BME280;51175;51.186;0.276;2023-05-10T02:11:47;100687.59;;;17.88;63.85
64739;BME280;51175;51.186;0.276;2023-05-10T02:12:20;100696.41;;;17.89;63.66
64739;BME280;51175;51.186;0.276;2023-05-10T02:12:51;100694.53;;;17.89;63.98
64739;BME280;51175;51.186;0.276;2023-05-10T02:13:24;100693.75;;;17.89;63.90
64739;BME280;51175;51.186;0.276;2023-05-10T02:13:57;100691.06;;;17.89;63.63
64739;BME280;51175;51.186;0.276;2023-05-10T02:14:32;100693.44;;;17.90;63.97
64739;BME280;51175;51.186;0.276;2023-05-10T02:15:05;100699.09;;;17.89;63.83
64739;BME280;51175;51.186;0.276;2023-05-10T02:15:38;100691.88;;;17.89;63.50
64739;BME280;51175;51.186;0.276;2023-05-10T02:16:11;100702.56;;;17.89;63.58
64739;BME280;51175;51.186;0.276;2023-05-10T02:16:42;100699.88;;;17.89;63.72
64739;BME280;51175;51.186;0.276;2023-05-10T02:17:14;100684.91;;;17.88;63.69
64739;BME280;51175;51.186;0.276;2023-05-10T02:17:46;100697.22;;;17.89;63.97
64739;BME280;51175;51.186;0.276;2023-05-10T02:18:18;100698.28;;;17.88;63.77
64739;BME280;51175;51.186;0.276;2023-05-10T02:18:51;100701.75;;;17.89;63.75
64739;BME280;51175;51.186;0.276;2023-05-10T02:19:23;100697.50;;;17.87;63.69
64739;BME280;51175;51.186;0.276;2023-05-10T02:19:54;100700.94;;;17.88;63.99
64739;BME280;51175;51.186;0.276;2023-05-10T02:20:26;100694.84;;;17.87;63.63
64739;BME280;51175;51.186;0.276;2023-05-10T02:20:57;100694.84;;;17.87;63.53
64739;BME280;51175;51.186;0.276;2023-05-10T02:21:30;100698.28;;;17.88;63.85
64739;BME280;51175;51.186;0.276;2023-05-10T02:22:01;100701.75;;;17.89;63.92
64739;BME280;51175;51.186;0.276;2023-05-10T02:22:33;100700.19;;;17.87;63.97
64739;BME280;51175;51.186;0.276;2023-05-10T02:23:06;100690.28;;;17.88;63.91
64739;BME280;51175;51.186;0.276;2023-05-10T02:23:38;100694.03;;;17.87;64.00
64739;BME280;51175;51.186;0.276;2023-05-10T02:24:09;100697.50;;;17.87;63.85
64739;BME280;51175;51.186;0.276;2023-05-10T02:24:41;100694.03;;;17.87;63.74
64739;BME280;51175;51.186;0.276;2023-05-10T02:25:13;100694.84;;;17.87;63.79
64739;BME280;51175;51.186;0.276;2023-05-10T02:25:44;100696.72;;;17.87;63.64
64739;BME280;51175;51.186;0.276;2023-05-10T02:26:16;100699.38;;;17.87;63.72
64739;BME280;51175;51.186;0.276;2023-05-10T02:26:49;100693.25;;;17.86;63.69
64739;BME280;51175;51.186;0.276;2023-05-10T02:27:21;100702.06;;;17.87;63.99
64739;BME280;51175;51.186;0.276;2023-05-10T02:27:55;100698.59;;;17.86;63.85
64739;BME280;51175;51.186;0.276;2023-05-10T02:28:26;100703.94;;;17.86;63.84
64739;BME280;51175;51.186;0.276;2023-05-10T02:28:58;100698.88;;;17.85;64.08
64739;BME280;51175;51.186;0.276;2023-05-10T02:29:29;100702.34;;;17.85;64.05
64739;BME280;51175;51.186;0.276;2023-05-10T02:30:01;100699.69;;;17.85;63.95
64739;BME280;51175;51.186;0.276;2023-05-10T02:30:33;100706.59;;;17.86;63.69
64739;BME280;51175;51.186;0.276;2023-05-10T02:31:05;100701.56;;;17.85;63.79
64739;BME280;51175;51.186;0.276;2023-05-10T02:31:37;100698.88;;;17.85;64.03
64739;BME280;51175;51.186;0.276;2023-05-10T02:32:09;100706.91;;;17.85;63.80
64739;BME280;51175;51.186;0.276;2023-05-10T02:32:41;100706.91;;;17.85;63.72
64739;BME280;51175;51.186;0.276;2023-05-10T02:33:13;100703.47;;;17.84;63.88
64739;BME280;51175;51.186;0.276;2023-05-10T02:33:45;100702.66;;;17.84;64.00
64739;BME280;51175;51.186;0.276;2023-05-10T02:34:16;100701.56;;;17.85;63.61
64739;BME280;51175;51.186;0.276;2023-05-10T02:34:47;100708.81;;;17.84;63.93
64739;BME280;51175;51.186;0.276;2023-05-10T02:35:22;100706.13;;;17.84;64.00
64739;BME280;51175;51.186;0.276;2023-05-10T02:35:53;100702.66;;;17.84;64.15
64739;BME280;51175;51.186;0.276;2023-05-10T02:36:26;100704.22;;;17.85;64.01
64739;BME280;51175;51.186;0.276;2023-05-10T02:36:58;100702.66;;;17.84;63.87
64739;BME280;51175;51.186;0.276;2023-05-10T02:37:30;100706.13;;;17.84;63.79
64739;BME280;51175;51.186;0.276;2023-05-10T02:38:01;100708.00;;;17.84;63.87
64739;BME280;51175;51.186;0.276;2023-05-10T02:38:33;100711.47;;;17.84;63.87
64739;BME280;51175;51.186;0.276;2023-05-10T02:39:05;100701.88;;;17.83;64.07
64739;BME280;51175;51.186;0.276;2023-05-10T02:39:40;100701.09;;;17.83;63.94
64739;BME280;51175;51.186;0.276;2023-05-10T02:40:15;100705.63;;;17.82;64.05
64739;BME280;51175;51.186;0.276;2023-05-10T02:40:46;100705.63;;;17.82;63.77
64739;BME280;51175;51.186;0.276;2023-05-10T02:41:18;100708.31;;;17.82;64.08
64739;BME280;51175;51.186;0.276;2023-05-10T02:41:50;100697.63;;;17.82;64.02
64739;BME280;51175;51.186;0.276;2023-05-10T02:42:27;100709.13;;;17.83;63.73
64739;BME280;51175;51.186;0.276;2023-05-10T02:42:59;100702.97;;;17.82;63.72
64739;BME280;51175;51.186;0.276;2023-05-10T02:43:33;100704.84;;;17.82;63.78
64739;BME280;51175;51.186;0.276;2023-05-10T02:44:06;100712.84;;;17.82;64.00
64739;BME280;51175;51.186;0.276;2023-05-10T02:44:39;100704.06;;;17.81;63.86
64739;BME280;51175;51.186;0.276;2023-05-10T02:45:13;100701.41;;;17.81;64.06
64739;BME280;51175;51.186;0.276;2023-05-10T02:45:47;100707.50;;;17.82;63.86
64739;BME280;51175;51.186;0.276;2023-05-10T02:46:18;100702.47;;;17.80;63.96
64739;BME280;51175;51.186;0.276;2023-05-10T02:46:49;100702.47;;;17.80;63.90
64739;BME280;51175;51.186;0.276;2023-05-10T02:47:19;100711.28;;;17.81;63.77
64739;BME280;51175;51.186;0.276;2023-05-10T02:47:50;100713.97;;;17.81;63.70
64739;BME280;51175;51.186;0.276;2023-05-10T02:48:21;100707.03;;;17.80;63.81
64739;BME280;51175;51.186;0.276;2023-05-10T02:48:51;100706.75;;;17.81;63.80
64739;BME280;51175;51.186;0.276;2023-05-10T02:49:22;100707.81;;;17.80;63.96
64739;BME280;51175;51.186;0.276;2023-05-10T02:49:53;100707.81;;;17.80;64.12
64739;BME280;51175;51.186;0.276;2023-05-10T02:50:26;100705.16;;;17.80;64.24
64739;BME280;51175;51.186;0.276;2023-05-10T02:51:04;100706.25;;;17.79;63.94
64739;BME280;51175;51.186;0.276;2023-05-10T02:51:37;100709.72;;;17.80;64.11
64739;BME280;51175;51.186;0.276;2023-05-10T02:52:16;100711.59;;;17.79;63.93
64739;BME280;51175;51.186;0.276;2023-05-10T02:52:54;100706.56;;;17.78;63.94
64739;BME280;51175;51.186;0.276;2023-05-10T02:53:31;100717.22;;;17.78;63.91
64739;BME280;51175;51.186;0.276;2023-05-10T02:54:08;100708.41;;;17.77;64.09
64739;BME280;51175;51.186;0.276;2023-05-10T02:54:45;100711.91;;;17.78;63.85
64739;BME280;51175;51.186;0.276;2023-05-10T02:55:19;100713.00;;;17.77;64.22
64739;BME280;51175;51.186;0.276;2023-05-10T02:55:52;100709.53;;;17.76;64.14
64739;BME280;51175;51.186;0.276;2023-05-10T02:56:34;100710.31;;;17.77;64.11
64739;BME280;51175;51.186;0.276;2023-05-10T02:57:06;100711.41;;;17.75;64.20
64739;BME280;51175;51.186;0.276;2023-05-10T02:57:42;100708.72;;;17.75;64.23
64739;BME280;51175;51.186;0.276;2023-05-10T02:58:13;100716.75;;;17.75;63.88
64739;BME280;51175;51.186;0.276;2023-05-10T02:58:43;100713.28;;;17.75;64.26
64739;BME280;51175;51.186;0.276;2023-05-10T02:59:14;100713.28;;;17.75;64.21
64739;BME280;51175;51.186;0.276;2023-05-10T02:59:45;100718.63;;;17.75;64.02
64739;BME280;51175;51.186;0.276;2023-05-10T03:00:15;100714.38;;;17.74;64.18
64739;BME280;51175;51.186;0.276;2023-05-10T03:00:45;100716.75;;;17.75;64.01